sensor_id;sensor_type;location;lat;lon;timestamp;pressure;altitude;pressure_sealevel;temperature;humidity
13709;BME280;54933;51.908;7.730;2024-01-10T00:00:06;102507.41;;;20.77;54.07
13709;BME280;54933;51.908;7.730;2024-01-10T00:02:31;102492.06;;;20.78;54.07
13709;BME280;54933;51.908;7.730;2024-01-10T00:04:57;102496.63;;;20.77;53.92
13709;BME280;54933;51.908;7.730;2024-01-10T00:07:22;102492.06;;;20.78;53.86
13709;BME280;54933;51.908;7.730;2024-01-10T00:09:47;102498.31;;;20.78;54.11
13709;BME280;54933;51.908;7.730;2024-01-10T00:12:12;102501.03;;;20.78;54.07
13709;BME280;54933;51.908;7.730;2024-01-10T00:14:38;102497.47;;;20.78;54.03
13709;BME280;54933;51.908;7.730;2024-01-10T00:17:03;102492.91;;;20.78;53.88
13709;BME280;54933;51.908;7.730;2024-01-10T00:19:28;102496.63;;;20.77;53.99
13709;BME280;54933;51.908;7.730;2024-01-10T00:21:54;102496.63;;;20.77;53.89
13709;BME280;54933;51.908;7.730;2024-01-10T00:24:19;102485.81;;;20.77;53.81
13709;BME280;54933;51.908;7.730;2024-01-10T00:26:44;102490.22;;;20.78;53.75
13709;BME280;54933;51.908;7.730;2024-01-10T00:29:09;102489.19;;;20.79;54.05
13709;BME280;54933;51.908;7.730;2024-01-10T00:31:35;102487.50;;;20.78;53.75
13709;BME280;54933;51.908;7.730;2024-01-10T00:34:00;102481.09;;;20.79;53.80
13709;BME280;54933;51.908;7.730;2024-01-10T00:36:26;102478.38;;;20.79;53.86
13709;BME280;54933;51.908;7.730;2024-01-10T00:38:51;102471.31;;;20.78;53.88
13709;BME280;54933;51.908;7.730;2024-01-10T00:41:16;102464.19;;;20.77;53.71
13709;BME280;54933;51.908;7.730;2024-01-10T00:43:41;102470.28;;;20.79;53.56
13709;BME280;54933;51.908;7.730;2024-01-10T00:46:07;102467.56;;;20.79;53.65
13709;BME280;54933;51.908;7.730;2024-01-10T00:48:32;102464.00;;;20.79;53.69
13709;BME280;54933;51.908;7.730;2024-01-10T00:50:58;102471.31;;;20.78;53.65
13709;BME280;54933;51.908;7.730;2024-01-10T00:53:24;102470.28;;;20.79;53.72
13709;BME280;54933;51.908;7.730;2024-01-10T00:55:49;102469.25;;;20.80;53.63
13709;BME280;54933;51.908;7.730;2024-01-10T00:58:14;102462.16;;;20.79;53.69
13709;BME280;54933;51.908;7.730;2024-01-10T01:00:39;102455.09;;;20.78;53.61
13709;BME280;54933;51.908;7.730;2024-01-10T01:03:06;102455.91;;;20.79;53.62
13709;BME280;54933;51.908;7.730;2024-01-10T01:05:31;102456.75;;;20.79;53.42
13709;BME280;54933;51.908;7.730;2024-01-10T01:07:56;102460.31;;;20.80;53.52
13709;BME280;54933;51.908;7.730;2024-01-10T01:10:22;102455.72;;;20.80;53.44
13709;BME280;54933;51.908;7.730;2024-01-10T01:12:47;102453.03;;;20.80;53.44
13709;BME280;54933;51.908;7.730;2024-01-10T01:15:12;102453.22;;;20.79;53.50
13709;BME280;54933;51.908;7.730;2024-01-10T01:17:38;102462.16;;;20.79;53.26
13709;BME280;54933;51.908;7.730;2024-01-10T01:20:03;102463.03;;;20.80;53.27
13709;BME280;54933;51.908;7.730;2024-01-10T01:22:30;102465.72;;;20.80;53.19
13709;BME280;54933;51.908;7.730;2024-01-10T01:24:56;102463.03;;;20.80;53.20
13709;BME280;54933;51.908;7.730;2024-01-10T01:27:21;102449.50;;;20.80;53.07
13709;BME280;54933;51.908;7.730;2024-01-10T01:29:46;102454.06;;;20.79;53.36
13709;BME280;54933;51.908;7.730;2024-01-10T01:32:12;102456.75;;;20.79;53.35
13709;BME280;54933;51.908;7.730;2024-01-10T01:34:37;102453.22;;;20.79;53.07
13709;BME280;54933;51.908;7.730;2024-01-10T01:37:02;102453.03;;;20.80;53.43
13709;BME280;54933;51.908;7.730;2024-01-10T01:39:29;102451.38;;;20.79;53.48
13709;BME280;54933;51.908;7.730;2024-01-10T01:41:54;102446.81;;;20.80;53.16
13709;BME280;54933;51.908;7.730;2024-01-10T01:44:19;102451.38;;;20.79;53.25
13709;BME280;54933;51.908;7.730;2024-01-10T01:46:45;102448.47;;;20.81;53.13
13709;BME280;54933;51.908;7.730;2024-01-10T01:49:11;102447.63;;;20.80;53.09
13709;BME280;54933;51.908;7.730;2024-01-10T01:51:37;102441.41;;;20.80;53.25
13709;BME280;54933;51.908;7.730;2024-01-10T01:54:06;102436.81;;;20.80;53.16
13709;BME280;54933;51.908;7.730;2024-01-10T01:56:31;102438.53;;;20.81;53.17
13709;BME280;54933;51.908;7.730;2024-01-10T01:58:56;102441.41;;;20.80;53.03
13709;BME280;54933;51.908;7.730;2024-01-10T02:01:22;102438.53;;;20.81;52.99
13709;BME280;54933;51.908;7.730;2024-01-10T02:03:47;102436.81;;;20.80;53.09
13709;BME280;54933;51.908;7.730;2024-01-10T02:06:13;102447.63;;;20.80;52.88
13709;BME280;54933;51.908;7.730;2024-01-10T02:08:38;102436.00;;;20.80;53.19
13709;BME280;54933;51.908;7.730;2024-01-10T02:11:04;102440.38;;;20.81;53.08
13709;BME280;54933;51.908;7.730;2024-01-10T02:13:33;102438.72;;;20.80;53.04
13709;BME280;54933;51.908;7.730;2024-01-10T02:15:59;102435.81;;;20.81;53.13
13709;BME280;54933;51.908;7.730;2024-01-10T02:18:24;102431.41;;;20.80;52.80
13709;BME280;54933;51.908;7.730;2024-01-10T02:20:50;102429.75;;;20.79;52.78
13709;BME280;54933;51.908;7.730;2024-01-10T02:23:16;102428.72;;;20.80;52.98
13709;BME280;54933;51.908;7.730;2024-01-10T02:25:42;102431.41;;;20.80;52.99
13709;BME280;54933;51.908;7.730;2024-01-10T02:28:07;102424.34;;;20.79;53.15
13709;BME280;54933;51.908;7.730;2024-01-10T02:30:34;102415.38;;;20.79;52.91
13709;BME280;54933;51.908;7.730;2024-01-10T02:32:59;102411.88;;;20.78;53.01
13709;BME280;54933;51.908;7.730;2024-01-10T02:35:25;102408.13;;;20.79;53.09
13709;BME280;54933;51.908;7.730;2024-01-10T02:37:52;102410.84;;;20.79;53.02
13709;BME280;54933;51.908;7.730;2024-01-10T02:40:17;102412.50;;;20.80;52.89
13709;BME280;54933;51.908;7.730;2024-01-10T02:42:43;102414.38;;;20.80;52.94
13709;BME280;54933;51.908;7.730;2024-01-10T02:45:09;102405.44;;;20.79;52.60
13709;BME280;54933;51.908;7.730;2024-01-10T02:47:34;102402.72;;;20.79;52.64
13709;BME280;54933;51.908;7.730;2024-01-10T02:49:59;102401.88;;;20.79;52.90
13709;BME280;54933;51.908;7.730;2024-01-10T02:52:25;102409.00;;;20.80;52.82
13709;BME280;54933;51.908;7.730;2024-01-10T02:54:50;102400.03;;;20.79;52.74
13709;BME280;54933;51.908;7.730;2024-01-10T02:57:15;102397.31;;;20.79;52.85
13709;BME280;54933;51.908;7.730;2024-01-10T02:59:41;102395.66;;;20.78;52.90
13709;BME280;54933;51.908;7.730;2024-01-10T03:02:06;102397.31;;;20.79;52.74
13709;BME280;54933;51.908;7.730;2024-01-10T03:04:31;102395.47;;;20.80;52.87
13709;BME280;54933;51.908;7.730;2024-01-10T03:06:56;102394.63;;;20.79;53.05
13709;BME280;54933;51.908;7.730;2024-01-10T03:09:25;102383.81;;;20.79;52.75
13709;BME280;54933;51.908;7.730;2024-01-10T03:11:50;102391.94;;;20.79;52.84
13709;BME280;54933;51.908;7.730;2024-01-10T03:14:15;102395.66;;;20.78;53.01
13709;BME280;54933;51.908;7.730;2024-01-10T03:16:40;102397.31;;;20.79;52.92
13709;BME280;54933;51.908;7.730;2024-01-10T03:19:06;102400.03;;;20.79;52.98
13709;BME280;54933;51.908;7.730;2024-01-10T03:21:31;102395.66;;;20.78;52.85
13709;BME280;54933;51.908;7.730;2024-01-10T03:23:58;102391.94;;;20.79;52.95
13709;BME280;54933;51.908;7.730;2024-01-10T03:26:24;102391.94;;;20.79;52.80
13709;BME280;54933;51.908;7.730;2024-01-10T03:28:49;102393.59;;;20.80;52.33
13709;BME280;54933;51.908;7.730;2024-01-10T03:31:15;102387.38;;;20.80;52.90
13709;BME280;54933;51.908;7.730;2024-01-10T03:33:41;102383.81;;;20.79;52.69
13709;BME280;54933;51.908;7.730;2024-01-10T03:36:11;102384.84;;;20.78;52.74
13709;BME280;54933;51.908;7.730;2024-01-10T03:38:36;102384.84;;;20.78;52.59
13709;BME280;54933;51.908;7.730;2024-01-10T03:41:01;102375.72;;;20.79;52.67
13709;BME280;54933;51.908;7.730;2024-01-10T03:43:26;102373.19;;;20.78;52.80
13709;BME280;54933;51.908;7.730;2024-01-10T03:45:52;102377.56;;;20.79;52.78
13709;BME280;54933;51.908;7.730;2024-01-10T03:48:17;102368.63;;;20.78;52.58
13709;BME280;54933;51.908;7.730;2024-01-10T03:50:42;102363.25;;;20.78;52.58
13709;BME280;54933;51.908;7.730;2024-01-10T03:53:07;102362.38;;;20.78;52.57
13709;BME280;54933;51.908;7.730;2024-01-10T03:55:33;102361.53;;;20.77;52.72
13709;BME280;54933;51.908;7.730;2024-01-10T03:57:58;102364.22;;;20.77;52.64
13709;BME280;54933;51.908;7.730;2024-01-10T04:00:24;102362.38;;;20.78;52.65
13709;BME280;54933;51.908;7.730;2024-01-10T04:02:50;102365.09;;;20.78;52.92
13709;BME280;54933;51.908;7.730;2024-01-10T04:05:16;102366.75;;;20.79;52.60
13709;BME280;54933;51.908;7.730;2024-01-10T04:07:42;102368.63;;;20.78;52.52
13709;BME280;54933;51.908;7.730;2024-01-10T04:10:11;102368.63;;;20.78;52.50
13709;BME280;54933;51.908;7.730;2024-01-10T04:12:36;102371.34;;;20.78;52.59
13709;BME280;54933;51.908;7.730;2024-01-10T04:15:03;102370.50;;;20.78;52.46
13709;BME280;54933;51.908;7.730;2024-01-10T04:17:29;102369.63;;;20.77;52.30
13709;BME280;54933;51.908;7.730;2024-01-10T04:19:54;102375.03;;;20.77;52.49
13709;BME280;54933;51.908;7.730;2024-01-10T04:22:19;102379.44;;;20.78;52.47
13709;BME280;54933;51.908;7.730;2024-01-10T04:24:45;102373.19;;;20.78;52.53
13709;BME280;54933;51.908;7.730;2024-01-10T04:27:10;102375.03;;;20.77;52.64
13709;BME280;54933;51.908;7.730;2024-01-10T04:29:35;102368.81;;;20.77;52.44
13709;BME280;54933;51.908;7.730;2024-01-10T04:32:00;102373.38;;;20.76;52.51
13709;BME280;54933;51.908;7.730;2024-01-10T04:34:26;102364.41;;;20.76;52.42
13709;BME280;54933;51.908;7.730;2024-01-10T04:36:51;102359.88;;;20.76;52.57
13709;BME280;54933;51.908;7.730;2024-01-10T04:39:16;102359.88;;;20.76;52.47
13709;BME280;54933;51.908;7.730;2024-01-10T04:41:41;102359.88;;;20.76;52.64
13709;BME280;54933;51.908;7.730;2024-01-10T04:44:07;102363.59;;;20.75;52.83
13709;BME280;54933;51.908;7.730;2024-01-10T04:46:32;102358.19;;;20.75;52.46
13709;BME280;54933;51.908;7.730;2024-01-10T04:48:58;102351.94;;;20.75;52.51
13709;BME280;54933;51.908;7.730;2024-01-10T04:51:24;102356.31;;;20.76;52.64
13709;BME280;54933;51.908;7.730;2024-01-10T04:53:49;102358.19;;;20.75;52.45
13709;BME280;54933;51.908;7.730;2024-01-10T04:56:14;102361.88;;;20.74;52.58
13709;BME280;54933;51.908;7.730;2024-01-10T04:58:39;102370.66;;;20.76;52.42
13709;BME280;54933;51.908;7.730;2024-01-10T05:01:05;102379.81;;;20.75;52.51
13709;BME280;54933;51.908;7.730;2024-01-10T05:03:31;102368.16;;;20.75;52.60
13709;BME280;54933;51.908;7.730;2024-01-10T05:05:56;102373.56;;;20.75;52.62
13709;BME280;54933;51.908;7.730;2024-01-10T05:08:21;102364.59;;;20.74;52.59
13709;BME280;54933;51.908;7.730;2024-01-10T05:10:46;102367.28;;;20.74;52.45
13709;BME280;54933;51.908;7.730;2024-01-10T05:13:12;102370.84;;;20.75;52.55
13709;BME280;54933;51.908;7.730;2024-01-10T05:15:37;102367.28;;;20.74;52.59
13709;BME280;54933;51.908;7.730;2024-01-10T05:18:03;102370.00;;;20.74;52.66
13709;BME280;54933;51.908;7.730;2024-01-10T05:20:28;102367.28;;;20.74;52.64
13709;BME280;54933;51.908;7.730;2024-01-10T05:22:53;102367.28;;;20.74;52.53
13709;BME280;54933;51.908;7.730;2024-01-10T05:25:19;102363.59;;;20.75;52.60
13709;BME280;54933;51.908;7.730;2024-01-10T05:27:44;102359.19;;;20.74;52.76
13709;BME280;54933;51.908;7.730;2024-01-10T05:30:09;102360.22;;;20.73;52.78
13709;BME280;54933;51.908;7.730;2024-01-10T05:32:37;102354.63;;;20.75;52.63
13709;BME280;54933;51.908;7.730;2024-01-10T05:35:03;102356.50;;;20.74;52.71
13709;BME280;54933;51.908;7.730;2024-01-10T05:37:28;102358.19;;;20.75;52.51
13709;BME280;54933;51.908;7.730;2024-01-10T05:39:53;102354.63;;;20.75;52.56
13709;BME280;54933;51.908;7.730;2024-01-10T05:42:19;102353.13;;;20.72;52.69
13709;BME280;54933;51.908;7.730;2024-01-10T05:44:44;102363.91;;;20.72;52.85
13709;BME280;54933;51.908;7.730;2024-01-10T05:47:09;102366.81;;;20.71;52.96
13709;BME280;54933;51.908;7.730;2024-01-10T05:49:34;102376.78;;;20.70;53.12
13709;BME280;54933;51.908;7.730;2024-01-10T05:52:00;102364.28;;;20.69;53.11
13709;BME280;54933;51.908;7.730;2024-01-10T05:54:25;102368.88;;;20.69;53.21
13709;BME280;54933;51.908;7.730;2024-01-10T05:56:50;102374.25;;;20.69;53.21
13709;BME280;54933;51.908;7.730;2024-01-10T05:59:15;102384.22;;;20.68;53.05
13709;BME280;54933;51.908;7.730;2024-01-10T06:01:42;102390.28;;;20.70;53.35
13709;BME280;54933;51.908;7.730;2024-01-10T06:04:07;102389.25;;;20.71;53.11
13709;BME280;54933;51.908;7.730;2024-01-10T06:06:32;102380.31;;;20.71;53.16
13709;BME280;54933;51.908;7.730;2024-01-10T06:08:58;102380.31;;;20.71;53.38
13709;BME280;54933;51.908;7.730;2024-01-10T06:11:23;102381.34;;;20.70;53.31
13709;BME280;54933;51.908;7.730;2024-01-10T06:13:48;102379.66;;;20.69;53.33
13709;BME280;54933;51.908;7.730;2024-01-10T06:16:14;102364.44;;;20.68;53.32
13709;BME280;54933;51.908;7.730;2024-01-10T06:18:39;102366.31;;;20.67;53.46
13709;BME280;54933;51.908;7.730;2024-01-10T06:21:05;102376.28;;;20.67;53.46
13709;BME280;54933;51.908;7.730;2024-01-10T06:23:30;102373.78;;;20.65;53.63
13709;BME280;54933;51.908;7.730;2024-01-10T06:25:55;102366.47;;;20.66;53.57
13709;BME280;54933;51.908;7.730;2024-01-10T06:28:21;102369.34;;;20.64;53.57
13709;BME280;54933;51.908;7.730;2024-01-10T06:30:46;102371.06;;;20.65;53.68
13709;BME280;54933;51.908;7.730;2024-01-10T06:33:12;102371.25;;;20.64;53.95
13709;BME280;54933;51.908;7.730;2024-01-10T06:35:37;102364.13;;;20.63;53.70
13709;BME280;54933;51.908;7.730;2024-01-10T06:38:03;102367.00;;;20.61;53.94
13709;BME280;54933;51.908;7.730;2024-01-10T06:40:29;102367.19;;;20.60;54.14
13709;BME280;54933;51.908;7.730;2024-01-10T06:42:54;102359.94;;;20.60;54.08
13709;BME280;54933;51.908;7.730;2024-01-10T06:45:20;102373.44;;;20.60;54.12
13709;BME280;54933;51.908;7.730;2024-01-10T06:47:45;102368.03;;;20.60;53.91
13709;BME280;54933;51.908;7.730;2024-01-10T06:50:10;102362.81;;;20.59;53.99
13709;BME280;54933;51.908;7.730;2024-01-10T06:52:36;102371.75;;;20.59;53.72
13709;BME280;54933;51.908;7.730;2024-01-10T06:55:02;102365.34;;;20.60;53.98
13709;BME280;54933;51.908;7.730;2024-01-10T06:57:29;102361.63;;;20.61;54.02
13709;BME280;54933;51.908;7.730;2024-01-10T06:59:54;102363.31;;;20.62;53.75
13709;BME280;54933;51.908;7.730;2024-01-10T07:02:20;102360.75;;;20.61;54.03
13709;BME280;54933;51.908;7.730;2024-01-10T07:04:45;102359.09;;;20.60;53.99
13709;BME280;54933;51.908;7.730;2024-01-10T07:07:13;102365.34;;;20.60;54.00
13709;BME280;54933;51.908;7.730;2024-01-10T07:09:38;102364.50;;;20.60;54.25
13709;BME280;54933;51.908;7.730;2024-01-10T07:12:06;102354.16;;;20.33;54.26
13709;BME280;54933;51.908;7.730;2024-01-10T07:14:32;102354.84;;;18.31;51.26
13709;BME280;54933;51.908;7.730;2024-01-10T07:16:57;102358.03;;;18.60;50.15
13709;BME280;54933;51.908;7.730;2024-01-10T07:19:22;102360.75;;;19.26;50.02
13709;BME280;54933;51.908;7.730;2024-01-10T07:21:49;102382.06;;;19.61;50.49
13709;BME280;54933;51.908;7.730;2024-01-10T07:24:14;102377.63;;;19.84;51.31
13709;BME280;54933;51.908;7.730;2024-01-10T07:26:39;102372.25;;;20.00;51.45
13709;BME280;54933;51.908;7.730;2024-01-10T07:29:05;102376.25;;;20.12;51.96
13709;BME280;54933;51.908;7.730;2024-01-10T07:31:33;102363.13;;;20.17;51.75
13709;BME280;54933;51.908;7.730;2024-01-10T07:33:58;102375.09;;;20.23;51.90
13709;BME280;54933;51.908;7.730;2024-01-10T07:36:24;102367.31;;;20.28;51.82
13709;BME280;54933;51.908;7.730;2024-01-10T07:38:54;102361.56;;;20.31;51.82
13709;BME280;54933;51.908;7.730;2024-01-10T07:41:20;102364.09;;;20.32;51.83
13709;BME280;54933;51.908;7.730;2024-01-10T07:43:45;102362.06;;;20.34;51.99
13709;BME280;54933;51.908;7.730;2024-01-10T07:46:10;102356.50;;;20.36;51.62
13709;BME280;54933;51.908;7.730;2024-01-10T07:48:36;102372.50;;;20.37;51.82
13709;BME280;54933;51.908;7.730;2024-01-10T07:51:03;102366.94;;;20.39;51.80
13709;BME280;54933;51.908;7.730;2024-01-10T07:53:29;102377.56;;;20.40;52.04
13709;BME280;54933;51.908;7.730;2024-01-10T07:55:54;102376.53;;;20.41;52.07
13709;BME280;54933;51.908;7.730;2024-01-10T07:58:19;102374.69;;;20.42;52.34
13709;BME280;54933;51.908;7.730;2024-01-10T08:00:45;102370.97;;;20.43;52.35
13709;BME280;54933;51.908;7.730;2024-01-10T08:03:11;102382.44;;;20.45;52.26
13709;BME280;54933;51.908;7.730;2024-01-10T08:05:37;102381.44;;;20.46;52.23
13709;BME280;54933;51.908;7.730;2024-01-10T08:08:02;102379.56;;;20.46;52.23
13709;BME280;54933;51.908;7.730;2024-01-10T08:10:28;102385.81;;;20.47;52.26
13709;BME280;54933;51.908;7.730;2024-01-10T08:12:53;102383.97;;;20.47;52.21
13709;BME280;54933;51.908;7.730;2024-01-10T08:15:19;102383.97;;;20.47;52.26
13709;BME280;54933;51.908;7.730;2024-01-10T08:17:45;102389.19;;;20.49;52.42
13709;BME280;54933;51.908;7.730;2024-01-10T08:20:10;102388.34;;;20.48;52.25
13709;BME280;54933;51.908;7.730;2024-01-10T08:22:36;102378.38;;;20.49;52.38
13709;BME280;54933;51.908;7.730;2024-01-10T08:25:01;102392.72;;;20.49;52.19
13709;BME280;54933;51.908;7.730;2024-01-10T08:27:27;102386.31;;;20.50;52.19
13709;BME280;54933;51.908;7.730;2024-01-10T08:29:53;102382.59;;;20.51;52.28
13709;BME280;54933;51.908;7.730;2024-01-10T08:32:18;102389.00;;;20.50;52.18
13709;BME280;54933;51.908;7.730;2024-01-10T08:34:46;102387.97;;;20.51;52.56
13709;BME280;54933;51.908;7.730;2024-01-10T08:37:12;102393.38;;;20.51;52.31
13709;BME280;54933;51.908;7.730;2024-01-10T08:39:38;102388.66;;;20.53;52.15
13709;BME280;54933;51.908;7.730;2024-01-10T08:42:03;102380.56;;;20.53;52.68
13709;BME280;54933;51.908;7.730;2024-01-10T08:44:28;102378.88;;;20.52;52.86
13709;BME280;54933;51.908;7.730;2024-01-10T08:46:54;102378.03;;;20.52;52.61
13709;BME280;54933;51.908;7.730;2024-01-10T08:49:19;102379.88;;;20.51;52.85
13709;BME280;54933;51.908;7.730;2024-01-10T08:51:44;102377.19;;;20.51;52.99
13709;BME280;54933;51.908;7.730;2024-01-10T08:54:11;102378.22;;;20.50;53.04
13709;BME280;54933;51.908;7.730;2024-01-10T08:56:42;102379.88;;;20.51;52.94
13709;BME280;54933;51.908;7.730;2024-01-10T08:59:07;102377.19;;;20.51;52.90
13709;BME280;54933;51.908;7.730;2024-01-10T09:01:33;102371.78;;;20.51;52.88
13709;BME280;54933;51.908;7.730;2024-01-10T09:03:58;102369.06;;;20.51;52.84
13709;BME280;54933;51.908;7.730;2024-01-10T09:06:23;102375.50;;;20.50;52.69
13709;BME280;54933;51.908;7.730;2024-01-10T09:08:49;102366.38;;;20.51;52.99
13709;BME280;54933;51.908;7.730;2024-01-10T09:11:14;102370.09;;;20.50;52.93
13709;BME280;54933;51.908;7.730;2024-01-10T09:13:40;102364.69;;;20.50;52.84
13709;BME280;54933;51.908;7.730;2024-01-10T09:16:05;102371.78;;;20.51;53.08
13709;BME280;54933;51.908;7.730;2024-01-10T09:18:31;102368.25;;;20.51;52.93
13709;BME280;54933;51.908;7.730;2024-01-10T09:20:56;102359.31;;;20.50;53.13
13709;BME280;54933;51.908;7.730;2024-01-10T09:23:21;102365.56;;;20.51;52.98
13709;BME280;54933;51.908;7.730;2024-01-10T09:25:47;102366.38;;;20.51;53.24
13709;BME280;54933;51.908;7.730;2024-01-10T09:28:12;102360.97;;;20.51;53.21
13709;BME280;54933;51.908;7.730;2024-01-10T09:30:38;102366.38;;;20.51;53.20
13709;BME280;54933;51.908;7.730;2024-01-10T09:33:04;102361.84;;;20.52;53.10
13709;BME280;54933;51.908;7.730;2024-01-10T09:35:29;102363.50;;;20.53;52.91
13709;BME280;54933;51.908;7.730;2024-01-10T09:37:54;102368.09;;;20.52;53.12
13709;BME280;54933;51.908;7.730;2024-01-10T09:40:20;102369.75;;;20.53;53.03
13709;BME280;54933;51.908;7.730;2024-01-10T09:42:50;102363.50;;;20.53;52.95
13709;BME280;54933;51.908;7.730;2024-01-10T09:45:16;102366.19;;;20.53;53.19
13709;BME280;54933;51.908;7.730;2024-01-10T09:47:42;102363.31;;;20.54;53.46
13709;BME280;54933;51.908;7.730;2024-01-10T09:50:10;102364.34;;;20.53;53.10
13709;BME280;54933;51.908;7.730;2024-01-10T09:52:42;102355.22;;;20.54;53.25
13709;BME280;54933;51.908;7.730;2024-01-10T09:55:13;102368.09;;;20.52;53.24
13709;BME280;54933;51.908;7.730;2024-01-10T09:57:40;102360.63;;;20.54;53.22
13709;BME280;54933;51.908;7.730;2024-01-10T10:00:06;102364.34;;;20.53;53.31
13709;BME280;54933;51.908;7.730;2024-01-10T10:02:35;102365.03;;;20.55;53.47
13709;BME280;54933;51.908;7.730;2024-01-10T10:05:04;102364.00;;;20.56;53.71
13709;BME280;54933;51.908;7.730;2024-01-10T10:07:43;102363.19;;;20.56;53.83
13709;BME280;54933;51.908;7.730;2024-01-10T10:10:09;102362.31;;;20.55;53.81
13709;BME280;54933;51.908;7.730;2024-01-10T10:12:47;102366.03;;;20.54;54.08
13709;BME280;54933;51.908;7.730;2024-01-10T10:15:18;102359.81;;;20.54;54.07
13709;BME280;54933;51.908;7.730;2024-01-10T10:17:45;102354.56;;;20.52;54.46
13709;BME280;54933;51.908;7.730;2024-01-10T10:23:07;102354.22;;;20.55;54.85
13709;BME280;54933;51.908;7.730;2024-01-10T10:25:37;102355.22;;;20.54;55.03
13709;BME280;54933;51.908;7.730;2024-01-10T10:28:04;102366.03;;;20.54;55.10
13709;BME280;54933;51.908;7.730;2024-01-10T10:30:33;102360.63;;;20.54;55.23
13709;BME280;54933;51.908;7.730;2024-01-10T10:32:59;102353.66;;;20.21;55.30
13709;BME280;54933;51.908;7.730;2024-01-10T10:35:24;102349.31;;;19.80;52.76
13709;BME280;54933;51.908;7.730;2024-01-10T10:37:51;102356.22;;;20.06;52.89
13709;BME280;54933;51.908;7.730;2024-01-10T10:40:17;102362.75;;;20.20;53.38
13709;BME280;54933;51.908;7.730;2024-01-10T10:42:54;102358.00;;;20.30;53.71
13709;BME280;54933;51.908;7.730;2024-01-10T10:45:20;102348.56;;;20.34;54.05
13709;BME280;54933;51.908;7.730;2024-01-10T10:47:57;102347.88;;;20.40;54.06
13709;BME280;54933;51.908;7.730;2024-01-10T10:50:23;102348.53;;;20.42;54.28
13709;BME280;54933;51.908;7.730;2024-01-10T10:52:50;102350.03;;;20.45;54.18
13709;BME280;54933;51.908;7.730;2024-01-10T10:55:16;102350.88;;;20.45;54.38
13709;BME280;54933;51.908;7.730;2024-01-10T10:57:46;102346.16;;;20.47;54.21
13709;BME280;54933;51.908;7.730;2024-01-10T11:00:13;102341.75;;;20.46;54.33
13709;BME280;54933;51.908;7.730;2024-01-10T11:02:40;102341.75;;;20.46;54.13
13709;BME280;54933;51.908;7.730;2024-01-10T11:05:07;102348.84;;;20.47;54.20
13709;BME280;54933;51.908;7.730;2024-01-10T11:07:35;102339.91;;;20.47;54.33
13709;BME280;54933;51.908;7.730;2024-01-10T11:10:01;102342.59;;;20.47;54.36
13709;BME280;54933;51.908;7.730;2024-01-10T11:12:50;102346.16;;;20.47;54.38
13709;BME280;54933;51.908;7.730;2024-01-10T11:18:37;102338.88;;;20.48;54.48
13709;BME280;54933;51.908;7.730;2024-01-10T11:21:36;102332.66;;;20.47;54.77
13709;BME280;54933;51.908;7.730;2024-01-10T11:24:03;102331.81;;;20.47;54.74
13709;BME280;54933;51.908;7.730;2024-01-10T11:26:29;102338.69;;;20.49;54.99
13709;BME280;54933;51.908;7.730;2024-01-10T11:28:56;102330.59;;;20.49;54.86
13709;BME280;54933;51.908;7.730;2024-01-10T11:31:29;102332.47;;;20.49;54.90
13709;BME280;54933;51.908;7.730;2024-01-10T11:33:56;102326.22;;;20.48;54.43
13709;BME280;54933;51.908;7.730;2024-01-10T11:36:21;102320.81;;;20.48;54.82
13709;BME280;54933;51.908;7.730;2024-01-10T11:38:54;102323.53;;;20.48;55.00
13709;BME280;54933;51.908;7.730;2024-01-10T11:41:28;102314.41;;;20.49;55.00
13709;BME280;54933;51.908;7.730;2024-01-10T11:49:14;102319.78;;;20.49;55.04
13709;BME280;54933;51.908;7.730;2024-01-10T11:51:48;102331.28;;;20.51;55.50
13709;BME280;54933;51.908;7.730;2024-01-10T11:57:00;102328.75;;;20.50;55.88
13709;BME280;54933;51.908;7.730;2024-01-10T11:59:27;102319.78;;;20.49;55.64
13709;BME280;54933;51.908;7.730;2024-01-10T12:01:52;102323.53;;;20.48;55.94
13709;BME280;54933;51.908;7.730;2024-01-10T12:04:19;102319.78;;;20.49;55.88
13709;BME280;54933;51.908;7.730;2024-01-10T12:06:44;102300.91;;;20.49;56.08
13709;BME280;54933;51.908;7.730;2024-01-10T12:09:10;102303.59;;;20.49;56.08
13709;BME280;54933;51.908;7.730;2024-01-10T12:11:40;102309.00;;;20.49;56.12
13709;BME280;54933;51.908;7.730;2024-01-10T12:14:08;102307.31;;;20.48;55.85
13709;BME280;54933;51.908;7.730;2024-01-10T12:16:33;102307.31;;;20.48;56.13
13709;BME280;54933;51.908;7.730;2024-01-10T12:18:59;102299.41;;;20.47;55.93
13709;BME280;54933;51.908;7.730;2024-01-10T12:21:24;102300.25;;;20.47;55.97
13709;BME280;54933;51.908;7.730;2024-01-10T12:23:50;102308.34;;;20.47;55.95
13709;BME280;54933;51.908;7.730;2024-01-10T12:26:16;102306.28;;;20.49;56.31
13709;BME280;54933;51.908;7.730;2024-01-10T12:28:53;102307.31;;;20.48;55.94
13709;BME280;54933;51.908;7.730;2024-01-10T12:31:18;102317.94;;;20.50;56.03
13709;BME280;54933;51.908;7.730;2024-01-10T12:33:44;102306.28;;;20.49;56.01
13709;BME280;54933;51.908;7.730;2024-01-10T12:36:10;102293.81;;;20.48;55.98
13709;BME280;54933;51.908;7.730;2024-01-10T12:38:38;102298.88;;;20.51;55.82
13709;BME280;54933;51.908;7.730;2024-01-10T12:41:04;102294.50;;;20.50;55.88
13709;BME280;54933;51.908;7.730;2024-01-10T12:43:29;102297.19;;;20.50;55.86
13709;BME280;54933;51.908;7.730;2024-01-10T12:46:11;102294.50;;;20.50;55.97
13709;BME280;54933;51.908;7.730;2024-01-10T12:48:40;102283.69;;;20.50;55.82
13709;BME280;54933;51.908;7.730;2024-01-10T12:51:10;102284.69;;;20.49;55.97
13709;BME280;54933;51.908;7.730;2024-01-10T12:53:39;102292.78;;;20.49;55.92
13709;BME280;54933;51.908;7.730;2024-01-10T12:56:06;102287.41;;;20.49;55.88
13709;BME280;54933;51.908;7.730;2024-01-10T12:58:33;102288.44;;;20.48;55.98